createdAt,value
2022-08-26T00:02:16.341Z,100.00
2022-08-26T00:04:46.702Z,100.00
2022-08-26T00:07:13.643Z,100.00
2022-08-26T00:09:40.795Z,100.00
2022-08-26T00:12:09.540Z,100.00
2022-08-26T00:14:39.647Z,100.00
2022-08-26T00:17:06.484Z,100.00
2022-08-26T00:19:35.868Z,100.00
2022-08-26T00:22:02.747Z,100.00
2022-08-26T00:24:29.656Z,100.00
2022-08-26T00:26:58.388Z,100.00
2022-08-26T00:29:25.504Z,100.00
2022-08-26T00:31:52.651Z,100.00
2022-08-26T00:34:19.772Z,100.00
2022-08-26T00:36:49.284Z,100.00
2022-08-26T00:39:20.052Z,100.00
2022-08-26T00:41:47.838Z,100.00
2022-08-26T00:44:19.291Z,100.00
2022-08-26T00:46:53.581Z,100.00
2022-08-26T00:49:44.868Z,100.00
2022-08-26T00:52:19.924Z,100.00
2022-08-26T00:54:53.340Z,100.00
2022-08-26T00:57:21.486Z,100.00
2022-08-26T00:59:54.345Z,100.00
2022-08-26T01:02:21.824Z,100.00
2022-08-26T01:04:56.178Z,100.00
2022-08-26T01:07:26.403Z,100.00
2022-08-26T01:09:56.965Z,100.00
2022-08-26T01:12:27.936Z,100.00
2022-08-26T01:14:55.798Z,100.00
2022-08-26T01:17:22.729Z,100.00
2022-08-26T01:19:56.657Z,100.00
2022-08-26T01:22:30.159Z,100.00
2022-08-26T01:25:00.938Z,100.00
2022-08-26T01:27:32.941Z,100.00
2022-08-26T01:30:02.169Z,100.00
2022-08-26T01:32:33.103Z,100.00
2022-08-26T01:35:01.063Z,100.00
2022-08-26T01:37:34.847Z,100.00
2022-08-26T01:40:02.611Z,100.00
2022-08-26T01:42:36.099Z,100.00
2022-08-26T01:45:11.302Z,100.00
2022-08-26T01:47:43.227Z,100.00
2022-08-26T01:50:27.548Z,100.00
2022-08-26T01:52:59.850Z,100.00
2022-08-26T01:55:38.669Z,100.00
2022-08-26T01:58:11.743Z,100.00
2022-08-26T02:00:39.626Z,100.00
2022-08-26T02:03:17.150Z,100.00
2022-08-26T02:05:48.774Z,100.00
2022-08-26T02:08:24.576Z,100.00
2022-08-26T02:10:54.812Z,100.00
2022-08-26T02:13:25.448Z,100.00
2022-08-26T02:15:54.450Z,100.00
2022-08-26T02:18:22.850Z,100.00
2022-08-26T02:20:51.714Z,100.00
2022-08-26T02:23:18.742Z,100.00
2022-08-26T02:26:00.416Z,100.00
2022-08-26T02:28:33.320Z,100.00
2022-08-26T02:31:00.136Z,100.00
2022-08-26T02:33:30.385Z,100.00
2022-08-26T02:35:59.483Z,100.00
2022-08-26T02:38:26.603Z,100.00
2022-08-26T02:40:56.691Z,100.00
2022-08-26T02:43:31.432Z,100.00
2022-08-26T02:46:01.833Z,100.00
2022-08-26T02:48:30.271Z,100.00
2022-08-26T02:51:01.770Z,100.00
2022-08-26T02:53:31.803Z,100.00
2022-08-26T02:55:59.865Z,100.00
2022-08-26T02:58:27.296Z,100.00
2022-08-26T03:00:55.155Z,100.00
2022-08-26T03:03:23.745Z,100.00
2022-08-26T03:05:51.554Z,100.00
2022-08-26T03:08:18.393Z,100.00
2022-08-26T03:10:47.514Z,100.00
2022-08-26T03:13:17.146Z,100.00
2022-08-26T03:15:44.139Z,100.00
2022-08-26T03:18:13.363Z,100.00
2022-08-26T03:20:40.294Z,100.00
2022-08-26T03:23:08.029Z,100.00
2022-08-26T03:25:35.883Z,100.00
2022-08-26T03:28:09.525Z,100.00
2022-08-26T03:30:44.923Z,100.00
2022-08-26T03:33:19.109Z,100.00
2022-08-26T03:35:50.516Z,100.00
2022-08-26T03:38:20.623Z,100.00
2022-08-26T03:40:48.875Z,100.00
2022-08-26T03:43:17.937Z,100.00
2022-08-26T03:45:44.915Z,100.00
2022-08-26T03:48:13.015Z,100.00
2022-08-26T03:50:39.930Z,100.00
2022-08-26T03:53:07.488Z,100.00
2022-08-26T03:55:40.859Z,100.00
2022-08-26T03:58:08.000Z,100.00
2022-08-26T04:00:34.809Z,100.00
2022-08-26T04:03:03.223Z,100.00
2022-08-26T04:05:30.472Z,100.00
2022-08-26T04:07:57.262Z,100.00
2022-08-26T04:10:29.200Z,100.00
2022-08-26T04:12:58.792Z,100.00
2022-08-26T04:15:26.954Z,100.00
2022-08-26T04:17:54.000Z,100.00
2022-08-26T04:20:22.714Z,100.00
2022-08-26T04:22:50.124Z,100.00
2022-08-26T04:25:20.650Z,100.00
2022-08-26T04:27:48.258Z,100.00
2022-08-26T04:30:15.906Z,100.00
2022-08-26T04:32:43.615Z,100.00
2022-08-26T04:35:10.508Z,100.00
2022-08-26T04:37:37.585Z,100.00
2022-08-26T04:40:05.450Z,100.00
2022-08-26T04:42:33.546Z,100.00
2022-08-26T04:45:01.211Z,100.00
2022-08-26T04:47:32.110Z,100.00
2022-08-26T04:50:00.025Z,100.00
2022-08-26T04:52:26.723Z,100.00
2022-08-26T04:54:55.714Z,100.00
2022-08-26T04:57:23.284Z,100.00
2022-08-26T04:59:50.079Z,100.00
2022-08-26T05:02:16.949Z,100.00
2022-08-26T05:04:43.790Z,100.00
2022-08-26T05:07:10.900Z,100.00
2022-08-26T05:09:40.880Z,100.00
2022-08-26T05:12:11.175Z,100.00
2022-08-26T05:14:38.552Z,100.00
2022-08-26T05:17:05.957Z,100.00
2022-08-26T05:19:33.598Z,100.00
2022-08-26T05:22:00.360Z,100.00
2022-08-26T05:24:27.416Z,100.00
2022-08-26T05:26:54.206Z,100.00
2022-08-26T05:29:23.680Z,100.00
2022-08-26T05:31:52.183Z,100.00
2022-08-26T05:34:20.974Z,100.00
2022-08-26T05:36:48.151Z,100.00
2022-08-26T05:39:15.133Z,100.00
2022-08-26T05:41:43.203Z,100.00
2022-08-26T05:44:15.000Z,100.00
2022-08-26T05:46:44.815Z,100.00
2022-08-26T05:49:14.485Z,100.00
2022-08-26T05:51:45.161Z,100.00
2022-08-26T05:54:13.097Z,100.00
2022-08-26T05:56:40.362Z,100.00
2022-08-26T05:59:14.326Z,100.00
2022-08-26T06:01:43.546Z,100.00
2022-08-26T06:04:11.762Z,100.00
2022-08-26T06:06:41.566Z,100.00
2022-08-26T06:09:11.075Z,100.00
2022-08-26T06:11:38.838Z,100.00
2022-08-26T06:14:07.977Z,100.00
2022-08-26T06:16:38.644Z,100.00
2022-08-26T06:19:11.132Z,100.00
2022-08-26T06:21:41.233Z,100.00
2022-08-26T06:24:31.086Z,100.00
2022-08-26T06:27:03.616Z,100.00
2022-08-26T06:29:34.711Z,100.00
2022-08-26T06:32:03.647Z,100.00
2022-08-26T06:34:30.988Z,100.00
2022-08-26T06:37:01.385Z,100.00
2022-08-26T06:39:30.958Z,100.00
2022-08-26T06:41:59.485Z,100.00
2022-08-26T06:44:27.669Z,100.00
2022-08-26T06:46:55.080Z,100.00
2022-08-26T06:49:26.807Z,100.00
2022-08-26T06:51:58.580Z,100.00
2022-08-26T06:54:32.249Z,100.00
2022-08-26T06:56:59.645Z,100.00
2022-08-26T06:59:26.964Z,100.00
2022-08-26T07:01:54.756Z,100.00
2022-08-26T07:04:23.388Z,100.00
2022-08-26T07:06:53.564Z,100.00
2022-08-26T07:09:26.582Z,100.00
2022-08-26T07:11:56.215Z,99.55
2022-08-26T07:14:26.309Z,99.78
2022-08-26T07:16:53.884Z,99.84
2022-08-26T07:19:30.167Z,99.38
2022-08-26T07:22:04.701Z,98.68
2022-08-26T07:24:32.515Z,98.50
2022-08-26T07:27:05.421Z,97.39
2022-08-26T07:29:33.272Z,97.92
2022-08-26T07:32:01.840Z,98.24
2022-08-26T07:34:29.357Z,98.82
2022-08-26T07:36:57.415Z,98.91
2022-08-26T07:39:27.032Z,97.65
2022-08-26T07:41:54.455Z,98.26
2022-08-26T07:44:24.679Z,98.70
2022-08-26T07:46:53.199Z,98.67
2022-08-26T07:49:26.973Z,98.63
2022-08-26T07:52:29.806Z,97.59
2022-08-26T07:54:59.817Z,98.13
2022-08-26T07:57:28.706Z,98.66
2022-08-26T07:59:59.550Z,98.63
2022-08-26T08:02:28.857Z,99.24
2022-08-26T08:04:59.825Z,99.19
2022-08-26T08:07:44.415Z,98.68
2022-08-26T08:10:25.074Z,98.32
2022-08-26T08:12:53.159Z,97.92
2022-08-26T08:15:25.003Z,98.92
2022-08-26T08:17:57.622Z,99.07
2022-08-26T08:20:27.359Z,98.81
2022-08-26T08:23:01.603Z,98.73
2022-08-26T08:25:29.436Z,98.29
2022-08-26T08:27:56.242Z,98.59
2022-08-26T08:30:24.477Z,97.21
2022-08-26T08:32:51.706Z,95.72
2022-08-26T08:35:26.286Z,96.50
2022-08-26T08:37:58.281Z,95.78
2022-08-26T08:40:26.536Z,94.74
2022-08-26T08:42:59.407Z,95.62
2022-08-26T08:45:36.607Z,96.12
2022-08-26T08:48:18.861Z,95.14
2022-08-26T08:50:49.002Z,94.38
2022-08-26T08:53:23.223Z,92.58
2022-08-26T08:56:08.849Z,91.55
2022-08-26T08:58:42.421Z,91.11
2022-08-26T09:01:24.647Z,89.30
2022-08-26T09:04:17.305Z,89.90
2022-08-26T09:06:47.580Z,89.25
2022-08-26T09:09:29.261Z,87.66
2022-08-26T09:11:58.916Z,87.83
2022-08-26T09:14:25.950Z,86.67
2022-08-26T09:17:16.573Z,88.02
2022-08-26T09:19:52.570Z,88.14
2022-08-26T09:22:35.126Z,87.31
2022-08-26T09:25:04.995Z,87.42
2022-08-26T09:27:40.115Z,86.91
2022-08-26T09:30:08.683Z,86.83
2022-08-26T09:32:38.899Z,85.05
2022-08-26T09:35:24.429Z,84.54
2022-08-26T09:40:34.524Z,84.49
2022-08-26T09:43:08.780Z,84.90
2022-08-26T09:45:36.965Z,85.72
2022-08-26T09:48:03.913Z,85.58
2022-08-26T09:50:52.102Z,85.68
2022-08-26T09:53:25.334Z,85.17
2022-08-26T09:56:17.165Z,85.89
2022-08-26T09:58:49.286Z,85.06
2022-08-26T10:01:31.330Z,84.76
2022-08-26T10:04:12.235Z,83.83
2022-08-26T10:07:09.549Z,82.63
2022-08-26T10:09:39.821Z,82.33
2022-08-26T10:12:20.656Z,82.39
2022-08-26T10:14:47.643Z,81.45
2022-08-26T10:18:09.576Z,82.53
2022-08-26T10:20:49.356Z,82.59
2022-08-26T10:23:20.496Z,82.62
2022-08-26T10:26:04.743Z,82.36
2022-08-26T10:28:40.599Z,81.55
2022-08-26T10:31:27.577Z,81.13
2022-08-26T10:33:58.826Z,80.59
2022-08-26T10:37:10.837Z,79.27
2022-08-26T10:40:02.379Z,76.75
2022-08-26T10:42:44.676Z,76.16
2022-08-26T10:45:17.105Z,76.51
2022-08-26T10:47:52.653Z,76.51
2022-08-26T10:50:29.559Z,76.15
2022-08-26T10:53:08.735Z,75.93
2022-08-26T10:55:48.478Z,76.17
2022-08-26T10:58:44.555Z,75.43
2022-08-26T11:01:47.159Z,77.23
2022-08-26T11:04:46.925Z,76.82
2022-08-26T11:07:36.302Z,76.58
2022-08-26T11:10:10.137Z,77.31
2022-08-26T11:12:37.203Z,77.46
2022-08-26T11:15:10.284Z,78.64
2022-08-26T11:17:45.791Z,77.43
2022-08-26T11:20:33.332Z,77.67
2022-08-26T11:23:13.539Z,78.20
2022-08-26T11:26:01.501Z,77.35
2022-08-26T11:28:49.213Z,76.99
2022-08-26T11:31:19.285Z,77.08
2022-08-26T11:34:00.722Z,76.70
2022-08-26T11:36:45.489Z,75.15
2022-08-26T11:39:28.557Z,75.33
2022-08-26T11:42:00.026Z,76.40
2022-08-26T11:44:39.825Z,75.59
2022-08-26T11:47:11.696Z,75.32
2022-08-26T11:49:39.607Z,77.41
2022-08-26T11:52:16.451Z,78.83
2022-08-26T11:55:23.451Z,79.35
2022-08-26T11:57:55.821Z,79.56
2022-08-26T12:00:31.433Z,78.81
2022-08-26T12:03:06.330Z,78.71
2022-08-26T12:05:46.807Z,76.70
2022-08-26T12:08:21.714Z,82.89
2022-08-26T12:10:51.806Z,86.84
2022-08-26T12:13:26.455Z,90.93
2022-08-26T12:15:59.178Z,90.73
2022-08-26T12:18:33.067Z,90.33
2022-08-26T12:21:10.460Z,89.90
2022-08-26T12:24:06.746Z,89.02
2022-08-26T12:26:36.758Z,87.28
2022-08-26T12:29:20.017Z,86.39
2022-08-26T12:32:14.432Z,85.79
2022-08-26T12:34:42.630Z,85.82
2022-08-26T12:37:12.969Z,84.74
2022-08-26T12:39:43.057Z,84.91
2022-08-26T12:42:12.903Z,86.71
2022-08-26T12:45:06.531Z,86.14
2022-08-26T12:47:43.970Z,85.49
2022-08-26T12:50:21.393Z,85.29
2022-08-26T12:53:00.681Z,84.31
2022-08-26T12:55:42.510Z,85.75
2022-08-26T12:58:15.290Z,86.21
2022-08-26T13:00:45.033Z,86.70
2022-08-26T13:03:33.763Z,85.30
2022-08-26T13:07:04.141Z,85.62
2022-08-26T13:09:31.419Z,84.74
2022-08-26T13:11:59.368Z,82.41
2022-08-26T13:14:29.058Z,80.69
2022-08-26T13:16:55.705Z,81.82
2022-08-26T13:19:25.554Z,82.29
2022-08-26T13:21:55.461Z,82.69
2022-08-26T13:24:22.265Z,82.14
2022-08-26T13:26:50.341Z,82.19
2022-08-26T13:29:18.560Z,81.75
2022-08-26T13:31:46.253Z,80.66
2022-08-26T13:34:20.517Z,80.60
2022-08-26T13:36:49.739Z,80.23
2022-08-26T13:39:17.525Z,80.33
2022-08-26T13:41:44.459Z,79.71
2022-08-26T13:44:13.649Z,79.61
2022-08-26T13:46:40.858Z,79.46
2022-08-26T13:49:07.877Z,77.68
2022-08-26T13:51:35.197Z,78.44
2022-08-26T13:54:01.898Z,77.12
2022-08-26T13:56:29.931Z,77.76
2022-08-26T13:58:58.077Z,78.15
2022-08-26T14:01:25.295Z,78.52
2022-08-26T14:03:53.148Z,77.54
2022-08-26T14:06:27.687Z,77.85
2022-08-26T14:08:54.855Z,77.65
2022-08-26T14:11:22.463Z,78.64
2022-08-26T14:13:50.305Z,78.69
2022-08-26T14:16:29.103Z,77.90
2022-08-26T14:19:05.883Z,78.26
2022-08-26T14:21:38.578Z,78.71
2022-08-26T14:24:06.551Z,77.53
2022-08-26T14:26:33.454Z,77.55
2022-08-26T14:29:03.962Z,77.43
2022-08-26T14:31:34.912Z,76.94
2022-08-26T14:34:07.044Z,77.88
2022-08-26T14:36:35.279Z,76.23
2022-08-26T14:39:09.590Z,76.94
2022-08-26T14:41:42.798Z,76.63
2022-08-26T14:44:14.031Z,76.80
2022-08-26T14:46:47.286Z,77.45
2022-08-26T14:49:14.688Z,75.58
2022-08-26T14:51:42.726Z,76.07
2022-08-26T14:54:19.092Z,76.36
2022-08-26T14:57:01.957Z,76.18
2022-08-26T14:59:49.615Z,76.54
2022-08-26T15:02:33.232Z,76.11
2022-08-26T15:05:04.150Z,75.81
2022-08-26T15:07:31.390Z,75.80
2022-08-26T15:10:00.302Z,75.26
2022-08-26T15:12:27.868Z,74.68
2022-08-26T15:14:55.008Z,74.26
2022-08-26T15:17:21.928Z,73.75
2022-08-26T15:19:49.050Z,73.14
2022-08-26T15:22:22.193Z,73.94
2022-08-26T15:24:56.316Z,73.13
2022-08-26T15:27:23.897Z,72.97
2022-08-26T15:29:51.729Z,72.33
2022-08-26T15:32:19.007Z,72.95
2022-08-26T15:34:46.380Z,73.81
2022-08-26T15:37:13.307Z,73.68
2022-08-26T15:39:49.675Z,72.68
2022-08-26T15:42:23.778Z,72.46
2022-08-26T15:44:52.779Z,72.77
2022-08-26T15:47:19.969Z,71.95
2022-08-26T15:49:56.811Z,71.85
2022-08-26T15:52:26.815Z,72.72
2022-08-26T15:54:55.761Z,72.33
2022-08-26T15:57:25.700Z,72.81
2022-08-26T15:59:56.677Z,72.86
2022-08-26T16:02:30.418Z,72.34
2022-08-26T16:05:00.130Z,72.64
2022-08-26T16:07:27.107Z,72.03
2022-08-26T16:09:56.989Z,72.79
2022-08-26T16:12:23.715Z,72.80
2022-08-26T16:14:56.299Z,72.09
2022-08-26T16:17:28.975Z,72.24
2022-08-26T16:19:56.426Z,72.37
2022-08-26T16:22:23.442Z,72.39
2022-08-26T16:24:50.519Z,71.81
2022-08-26T16:27:23.157Z,72.87
2022-08-26T16:29:50.119Z,72.56
2022-08-26T16:32:16.876Z,72.34
2022-08-26T16:34:47.135Z,72.07
2022-08-26T16:37:23.827Z,73.58
2022-08-26T16:39:53.784Z,73.85
2022-08-26T16:42:20.606Z,74.38
2022-08-26T16:44:49.936Z,73.96
2022-08-26T16:47:21.475Z,74.17
2022-08-26T16:49:49.388Z,73.77
2022-08-26T16:52:16.319Z,74.47
2022-08-26T16:54:43.731Z,74.49
2022-08-26T16:57:14.587Z,74.52
2022-08-26T16:59:41.884Z,74.78
2022-08-26T17:02:10.584Z,74.96
2022-08-26T17:04:41.058Z,74.80
2022-08-26T17:07:12.896Z,74.47
2022-08-26T17:09:45.864Z,74.88
2022-08-26T17:12:19.158Z,75.13
2022-08-26T17:14:46.036Z,75.22
2022-08-26T17:17:12.975Z,75.83
2022-08-26T17:19:47.015Z,75.17
2022-08-26T17:22:15.451Z,76.13
2022-08-26T17:24:43.651Z,76.43
2022-08-26T17:27:10.766Z,77.35
2022-08-26T17:29:37.509Z,76.65
2022-08-26T17:32:04.762Z,77.05
2022-08-26T17:34:43.395Z,76.52
2022-08-26T17:37:10.638Z,76.56
2022-08-26T17:39:42.514Z,76.87
2022-08-26T17:42:11.913Z,77.50
2022-08-26T17:44:38.873Z,77.32
2022-08-26T17:47:07.268Z,77.16
2022-08-26T17:49:34.772Z,77.29
2022-08-26T17:52:02.070Z,77.43
2022-08-26T17:54:30.186Z,77.30
2022-08-26T17:56:59.108Z,77.70
2022-08-26T17:59:31.407Z,77.33
2022-08-26T18:02:02.418Z,78.11
2022-08-26T18:04:29.213Z,77.95
2022-08-26T18:06:58.590Z,77.79
2022-08-26T18:09:25.537Z,78.17
2022-08-26T18:11:52.772Z,78.29
2022-08-26T18:14:19.818Z,77.02
2022-08-26T18:16:49.405Z,77.80
2022-08-26T18:19:16.912Z,77.96
2022-08-26T18:21:44.135Z,78.21
2022-08-26T18:24:13.981Z,77.97
2022-08-26T18:26:48.820Z,77.95
2022-08-26T18:29:18.475Z,77.96
2022-08-26T18:32:02.989Z,78.06
2022-08-26T18:34:31.637Z,78.01
2022-08-26T18:37:00.279Z,77.06
2022-08-26T18:39:27.349Z,77.39
2022-08-26T18:41:54.314Z,76.79
2022-08-26T18:44:23.331Z,77.62
2022-08-26T18:46:53.224Z,77.31
2022-08-26T18:49:24.517Z,77.89
2022-08-26T18:51:52.410Z,77.32
2022-08-26T18:56:47.595Z,76.88
2022-08-26T18:59:14.766Z,76.73
2022-08-26T19:01:42.775Z,77.20
2022-08-26T19:04:14.107Z,77.42
2022-08-26T19:06:43.410Z,77.42
2022-08-26T19:09:12.109Z,77.29
2022-08-26T19:11:42.912Z,77.13
2022-08-26T19:14:13.701Z,77.02
2022-08-26T19:16:43.180Z,77.06
2022-08-26T19:19:10.944Z,76.86
2022-08-26T19:21:39.085Z,76.88
2022-08-26T19:24:09.422Z,77.53
2022-08-26T19:26:36.731Z,76.67
2022-08-26T19:29:03.941Z,76.69
2022-08-26T19:31:31.234Z,77.21
2022-08-26T19:33:59.124Z,76.32
2022-08-26T19:36:27.561Z,76.68
2022-08-26T19:38:56.751Z,76.86
2022-08-26T19:41:37.560Z,77.36
2022-08-26T19:44:34.718Z,77.35
2022-08-26T19:47:03.643Z,77.27
2022-08-26T19:49:30.862Z,77.13
2022-08-26T19:51:58.147Z,77.35
2022-08-26T19:54:25.502Z,76.84
2022-08-26T19:56:52.204Z,77.57
2022-08-26T19:59:19.147Z,77.53
2022-08-26T20:01:46.453Z,77.85
2022-08-26T20:04:27.657Z,77.30
2022-08-26T20:06:57.819Z,77.41
2022-08-26T20:09:30.781Z,77.67
2022-08-26T20:11:57.826Z,78.47
2022-08-26T20:14:28.785Z,78.93
2022-08-26T20:16:55.825Z,79.02
2022-08-26T20:19:42.846Z,78.57
2022-08-26T20:22:10.404Z,78.84
2022-08-26T20:24:37.545Z,78.66
2022-08-26T20:27:07.811Z,77.48
2022-08-26T20:29:36.295Z,77.17
2022-08-26T20:32:03.581Z,77.91
2022-08-26T20:34:34.113Z,77.02
2022-08-26T20:37:00.914Z,77.22
2022-08-26T20:39:29.615Z,77.97
2022-08-26T20:41:57.844Z,77.63
2022-08-26T20:44:25.316Z,77.76
2022-08-26T20:46:52.067Z,78.21
2022-08-26T20:49:18.997Z,78.06
2022-08-26T20:51:48.114Z,78.40
2022-08-26T20:54:15.444Z,78.55
2022-08-26T20:56:42.565Z,78.25
2022-08-26T20:59:09.695Z,78.52
2022-08-26T21:01:41.924Z,78.91
2022-08-26T21:04:18.956Z,78.86
2022-08-26T21:06:49.884Z,78.59
2022-08-26T21:09:19.287Z,78.26
2022-08-26T21:11:46.097Z,78.20
2022-08-26T21:14:16.147Z,79.55
2022-08-26T21:16:47.959Z,80.09
2022-08-26T21:19:18.229Z,80.79
2022-08-26T21:21:49.579Z,80.94
2022-08-26T21:24:17.175Z,82.00
2022-08-26T21:26:44.585Z,81.97
2022-08-26T21:29:13.559Z,82.71
2022-08-26T21:31:45.784Z,82.65
2022-08-26T21:34:18.448Z,82.95
2022-08-26T21:36:49.686Z,83.63
2022-08-26T21:39:17.200Z,83.34
2022-08-26T21:41:45.811Z,84.51
2022-08-26T21:44:17.103Z,84.42
2022-08-26T21:46:45.812Z,85.00
2022-08-26T21:49:15.771Z,85.34
2022-08-26T21:51:45.833Z,85.56
2022-08-26T21:54:14.153Z,85.78
2022-08-26T21:56:45.264Z,85.50
2022-08-26T21:59:17.241Z,85.99
2022-08-26T22:01:44.658Z,86.96
2022-08-26T22:04:12.059Z,87.08
2022-08-26T22:06:43.333Z,86.75
2022-08-26T22:09:11.584Z,87.32
2022-08-26T22:11:38.637Z,88.31
2022-08-26T22:14:06.733Z,88.28
2022-08-26T22:16:33.862Z,88.57
2022-08-26T22:19:00.984Z,88.48
2022-08-26T22:21:28.519Z,88.25
2022-08-26T22:23:58.288Z,88.14
2022-08-26T22:26:29.818Z,88.21
2022-08-26T22:28:59.097Z,89.07
2022-08-26T22:31:37.283Z,89.62
2022-08-26T22:34:10.624Z,89.91
2022-08-26T22:36:43.111Z,90.19
2022-08-26T22:39:13.596Z,89.96
2022-08-26T22:41:43.012Z,89.88
2022-08-26T22:44:11.677Z,90.67
2022-08-26T22:46:39.723Z,90.40
2022-08-26T22:49:09.597Z,90.26
2022-08-26T22:51:37.309Z,90.65
2022-08-26T22:54:04.815Z,90.47
2022-08-26T22:56:31.974Z,91.23
2022-08-26T22:58:58.844Z,90.99
2022-08-26T23:01:25.947Z,91.10
2022-08-26T23:03:55.551Z,90.95
2022-08-26T23:06:24.703Z,90.95
2022-08-26T23:08:52.192Z,91.08
2022-08-26T23:11:19.305Z,90.94
2022-08-26T23:13:45.980Z,92.09
2022-08-26T23:16:13.649Z,92.20
2022-08-26T23:18:44.018Z,92.34
2022-08-26T23:21:10.750Z,92.30
2022-08-26T23:23:38.450Z,92.78
2022-08-26T23:26:06.972Z,92.24
2022-08-26T23:28:36.072Z,92.24
2022-08-26T23:31:03.132Z,92.55
2022-08-26T23:33:49.802Z,92.26
2022-08-26T23:36:22.775Z,93.28
2022-08-26T23:38:52.751Z,92.70
2022-08-26T23:41:22.664Z,92.48
2022-08-26T23:43:49.571Z,92.72
2022-08-26T23:46:16.266Z,92.96
2022-08-26T23:48:43.301Z,93.70
2022-08-26T23:51:29.808Z,92.91
2022-08-26T23:53:57.518Z,93.32
2022-08-26T23:56:24.725Z,93.47
2022-08-26T23:58:54.449Z,93.41
